createdAt,value
2023-04-19T00:00:48.183Z,29.27
2023-04-19T00:01:48.253Z,29.32
2023-04-19T00:02:48.255Z,29.30
2023-04-19T00:03:48.384Z,29.28
2023-04-19T00:04:48.266Z,29.35
2023-04-19T00:05:48.123Z,29.27
2023-04-19T00:06:48.129Z,29.33
2023-04-19T00:07:48.121Z,29.27
2023-04-19T00:08:48.085Z,29.26
2023-04-19T00:09:48.144Z,29.27
2023-04-19T00:10:48.106Z,29.28
2023-04-19T00:11:48.104Z,29.27
2023-04-19T00:12:48.086Z,29.30
2023-04-19T00:13:48.072Z,29.27
2023-04-19T00:14:48.077Z,29.27
2023-04-19T00:15:48.075Z,29.28
2023-04-19T00:16:48.111Z,29.27
2023-04-19T00:17:48.101Z,29.27
2023-04-19T00:18:48.059Z,29.28
2023-04-19T00:19:48.066Z,29.24
2023-04-19T00:20:48.046Z,29.27
2023-04-19T00:21:48.036Z,29.26
2023-04-19T00:22:48.049Z,29.32
2023-04-19T00:23:48.039Z,29.30
2023-04-19T00:24:48.036Z,29.26
2023-04-19T00:25:48.024Z,29.30
2023-04-19T00:26:47.994Z,29.30
2023-04-19T00:27:47.976Z,29.30
2023-04-19T00:28:47.975Z,29.31
2023-04-19T00:29:47.968Z,29.21
2023-04-19T00:30:48.015Z,29.30
2023-04-19T00:31:47.993Z,29.23
2023-04-19T00:32:47.991Z,29.27
2023-04-19T00:33:47.960Z,29.23
2023-04-19T00:34:47.970Z,29.26
2023-04-19T00:35:47.956Z,29.23
2023-04-19T00:36:47.916Z,29.27
2023-04-19T00:37:47.902Z,29.31
2023-04-19T00:38:47.907Z,29.23
2023-04-19T00:39:47.913Z,29.28
2023-04-19T00:40:47.896Z,29.28
2023-04-19T00:41:47.902Z,29.26
2023-04-19T00:42:47.906Z,29.24
2023-04-19T00:43:47.871Z,29.23
2023-04-19T00:44:47.877Z,29.26
2023-04-19T00:45:47.892Z,29.17
2023-04-19T00:46:47.897Z,29.24
2023-04-19T00:47:47.901Z,29.24
2023-04-19T00:48:47.834Z,29.23
2023-04-19T00:49:47.857Z,29.23
2023-04-19T00:50:47.851Z,29.26
2023-04-19T00:51:47.811Z,29.21
2023-04-19T00:52:47.821Z,29.24
2023-04-19T00:53:47.836Z,29.23
2023-04-19T00:54:47.842Z,29.20
2023-04-19T00:55:47.816Z,29.21
2023-04-19T00:56:47.780Z,29.21
2023-04-19T00:57:47.791Z,29.21
2023-04-19T00:58:47.778Z,29.24
2023-04-19T00:59:47.798Z,29.23
2023-04-19T01:00:47.752Z,29.21
2023-04-19T01:01:47.814Z,29.21
2023-04-19T01:02:48.071Z,29.23
2023-04-19T01:03:47.866Z,29.20
2023-04-19T01:04:47.753Z,29.23
2023-04-19T01:05:47.745Z,29.20
2023-04-19T01:06:47.769Z,29.19
2023-04-19T01:07:47.724Z,29.21
2023-04-19T01:08:47.751Z,29.17
2023-04-19T01:09:47.728Z,29.24
2023-04-19T01:10:47.710Z,29.19
2023-04-19T01:11:47.711Z,29.21
2023-04-19T01:12:47.753Z,29.22
2023-04-19T01:13:47.780Z,29.20
2023-04-19T01:14:47.832Z,29.21
2023-04-19T01:15:47.896Z,29.23
2023-04-19T01:16:47.835Z,29.19
2023-04-19T01:17:47.883Z,29.21
2023-04-19T01:18:47.874Z,29.19
2023-04-19T01:19:47.928Z,29.21
2023-04-19T01:20:47.979Z,29.19
2023-04-19T01:21:47.976Z,29.19
2023-04-19T01:22:47.985Z,29.17
2023-04-19T01:23:48.055Z,29.16
2023-04-19T01:24:48.088Z,29.19
2023-04-19T01:25:48.119Z,29.17
2023-04-19T01:26:48.134Z,29.19
2023-04-19T01:27:48.205Z,29.20
2023-04-19T01:28:48.182Z,29.16
2023-04-19T01:29:48.237Z,29.17
2023-04-19T01:30:48.220Z,29.17
2023-04-19T01:31:48.336Z,29.16
2023-04-19T01:32:48.342Z,29.15
2023-04-19T01:33:48.331Z,29.17
2023-04-19T01:34:48.369Z,29.17
2023-04-19T01:35:48.373Z,29.19
2023-04-19T01:36:48.424Z,29.19
2023-04-19T01:37:48.451Z,29.17
2023-04-19T01:38:48.450Z,29.12
2023-04-19T01:39:48.502Z,29.12
2023-04-19T01:40:48.521Z,29.17
2023-04-19T01:41:48.539Z,29.10
2023-04-19T01:42:48.595Z,29.12
2023-04-19T01:43:48.630Z,29.16
2023-04-19T01:44:48.669Z,29.10
2023-04-19T01:45:48.654Z,29.17
2023-04-19T01:46:48.736Z,29.13
2023-04-19T01:47:48.740Z,29.12
2023-04-19T01:48:48.744Z,29.10
2023-04-19T01:49:48.746Z,29.16
2023-04-19T01:50:48.780Z,29.14
2023-04-19T01:51:48.806Z,29.12
2023-04-19T01:52:48.833Z,29.14
2023-04-19T01:53:48.874Z,29.12
2023-04-19T01:54:48.938Z,29.09
2023-04-19T01:55:48.944Z,29.14
2023-04-19T01:56:48.949Z,29.12
2023-04-19T01:57:48.985Z,29.12
2023-04-19T01:58:49.027Z,29.10
2023-04-19T01:59:49.051Z,29.16
2023-04-19T02:00:49.165Z,29.13
2023-04-19T02:01:49.146Z,29.13
2023-04-19T02:02:49.281Z,29.09
2023-04-19T02:03:49.277Z,29.10
2023-04-19T02:04:49.187Z,29.10
2023-04-19T02:05:49.241Z,29.14
2023-04-19T02:06:49.252Z,29.12
2023-04-19T02:07:49.300Z,29.12
2023-04-19T02:08:49.298Z,29.09
2023-04-19T02:09:49.328Z,29.13
2023-04-19T02:10:49.357Z,29.12
2023-04-19T02:11:49.416Z,29.16
2023-04-19T02:12:49.389Z,29.12
2023-04-19T02:13:49.432Z,29.06
2023-04-19T02:14:49.451Z,29.13
2023-04-19T02:15:49.506Z,29.11
2023-04-19T02:16:49.536Z,29.11
2023-04-19T02:17:49.623Z,29.12
2023-04-19T02:18:49.570Z,29.11
2023-04-19T02:19:49.592Z,29.10
2023-04-19T02:20:49.607Z,29.12
2023-04-19T02:21:49.636Z,29.09
2023-04-19T02:22:49.653Z,29.10
2023-04-19T02:23:49.700Z,29.12
2023-04-19T02:24:49.754Z,29.09
2023-04-19T02:25:49.768Z,29.07
2023-04-19T02:26:49.777Z,29.12
2023-04-19T02:27:49.797Z,29.13
2023-04-19T02:28:49.837Z,29.07
2023-04-19T02:29:49.876Z,29.13
2023-04-19T02:30:49.869Z,29.12
2023-04-19T02:31:49.957Z,29.05
2023-04-19T02:32:50.021Z,29.10
2023-04-19T02:33:49.965Z,29.09
2023-04-19T02:34:49.998Z,29.11
2023-04-19T02:35:50.061Z,29.09
2023-04-19T02:36:50.048Z,29.10
2023-04-19T02:37:50.061Z,29.07
2023-04-19T02:38:50.092Z,29.06
2023-04-19T02:39:50.143Z,29.04
2023-04-19T02:40:50.135Z,29.10
2023-04-19T02:41:50.182Z,29.07
2023-04-19T02:42:50.170Z,29.07
2023-04-19T02:43:50.194Z,29.06
2023-04-19T02:44:50.218Z,29.11
2023-04-19T02:45:50.301Z,29.10
2023-04-19T02:46:50.274Z,29.03
2023-04-19T02:47:50.288Z,29.06
2023-04-19T02:48:50.278Z,29.11
2023-04-19T02:49:50.360Z,29.07
2023-04-19T02:50:50.334Z,29.05
2023-04-19T02:51:50.390Z,29.03
2023-04-19T02:52:50.381Z,29.06
2023-04-19T02:53:50.437Z,29.10
2023-04-19T02:54:50.434Z,29.07
2023-04-19T02:55:50.461Z,29.05
2023-04-19T02:56:50.466Z,29.03
2023-04-19T02:57:50.516Z,29.10
2023-04-19T02:58:50.531Z,29.03
2023-04-19T02:59:50.572Z,29.06
2023-04-19T03:00:50.599Z,29.06
2023-04-19T03:01:50.680Z,29.10
2023-04-19T03:02:50.707Z,29.11
2023-04-19T03:03:50.732Z,29.07
2023-04-19T03:04:50.709Z,29.06
2023-04-19T03:05:50.714Z,29.05
2023-04-19T03:06:50.772Z,29.06
2023-04-19T03:07:50.776Z,29.05
2023-04-19T03:08:50.808Z,29.05
2023-04-19T03:09:50.816Z,29.06
2023-04-19T03:10:50.847Z,29.05
2023-04-19T03:11:50.893Z,29.05
2023-04-19T03:12:50.894Z,29.05
2023-04-19T03:13:50.924Z,29.05
2023-04-19T03:14:50.978Z,29.06
2023-04-19T03:15:51.030Z,29.06
2023-04-19T03:16:50.996Z,29.05
2023-04-19T03:17:51.075Z,29.07
2023-04-19T03:18:51.066Z,29.03
2023-04-19T03:19:51.076Z,29.05
2023-04-19T03:20:51.117Z,29.06
2023-04-19T03:21:51.174Z,29.05
2023-04-19T03:22:51.194Z,29.00
2023-04-19T03:23:51.234Z,29.07
2023-04-19T03:24:51.230Z,29.05
2023-04-19T03:25:51.264Z,29.00
2023-04-19T03:26:51.258Z,29.07
2023-04-19T03:27:51.289Z,29.00
2023-04-19T03:28:51.347Z,29.02
2023-04-19T03:29:51.389Z,29.05
2023-04-19T03:30:51.415Z,29.05
2023-04-19T03:31:51.393Z,29.05
2023-04-19T03:32:51.560Z,29.03
2023-04-19T03:33:51.450Z,29.02
2023-04-19T03:34:51.507Z,29.02
2023-04-19T03:35:51.523Z,29.06
2023-04-19T03:36:51.516Z,28.98
2023-04-19T03:37:51.570Z,29.03
2023-04-19T03:38:51.589Z,29.05
2023-04-19T03:39:51.618Z,29.00
2023-04-19T03:40:51.668Z,29.00
2023-04-19T03:41:51.635Z,29.03
2023-04-19T03:42:51.691Z,29.04
2023-04-19T03:43:51.744Z,29.01
2023-04-19T03:44:51.761Z,28.99
2023-04-19T03:45:51.808Z,29.02
2023-04-19T03:46:51.807Z,29.03
2023-04-19T03:47:51.903Z,29.02
2023-04-19T03:48:51.838Z,29.02
2023-04-19T03:49:51.877Z,29.02
2023-04-19T03:50:51.948Z,28.99
2023-04-19T03:51:51.935Z,28.96
2023-04-19T03:52:51.933Z,29.00
2023-04-19T03:53:51.985Z,29.03
2023-04-19T03:54:52.015Z,29.00
2023-04-19T03:55:52.030Z,29.00
2023-04-19T03:56:52.045Z,29.02
2023-04-19T03:57:52.104Z,29.00
2023-04-19T03:58:52.090Z,28.99
2023-04-19T03:59:52.153Z,29.00
2023-04-19T04:00:52.161Z,28.99
2023-04-19T04:01:52.257Z,29.00
2023-04-19T04:02:52.420Z,29.00
2023-04-19T04:03:52.515Z,28.99
2023-04-19T04:04:52.383Z,29.04
2023-04-19T04:05:52.368Z,28.99
2023-04-19T04:06:52.361Z,29.03
2023-04-19T04:07:52.403Z,29.01
2023-04-19T04:08:52.431Z,29.02
2023-04-19T04:09:52.455Z,29.01
2023-04-19T04:10:52.501Z,28.98
2023-04-19T04:11:52.504Z,29.02
2023-04-19T04:12:52.538Z,28.99
2023-04-19T04:13:52.532Z,29.00
2023-04-19T04:14:52.600Z,28.96
2023-04-19T04:15:52.669Z,29.03
2023-04-19T04:16:52.680Z,29.00
2023-04-19T04:17:52.729Z,29.00
2023-04-19T04:18:52.735Z,28.96
2023-04-19T04:19:52.726Z,29.02
2023-04-19T04:20:52.761Z,28.99
2023-04-19T04:21:52.811Z,29.00
2023-04-19T04:22:52.797Z,29.03
2023-04-19T04:23:52.836Z,28.99
2023-04-19T04:24:52.903Z,29.02
2023-04-19T04:25:52.924Z,28.96
2023-04-19T04:26:52.947Z,28.97
2023-04-19T04:27:53.005Z,28.98
2023-04-19T04:28:52.990Z,28.97
2023-04-19T04:29:53.018Z,28.96
2023-04-19T04:30:53.048Z,28.97
2023-04-19T04:31:53.122Z,28.99
2023-04-19T04:32:53.174Z,28.99
2023-04-19T04:33:53.143Z,28.99
2023-04-19T04:34:53.181Z,28.93
2023-04-19T04:35:53.188Z,28.97
2023-04-19T04:36:53.260Z,28.99
2023-04-19T04:37:53.242Z,28.93
2023-04-19T04:38:53.279Z,28.95
2023-04-19T04:39:53.361Z,28.90
2023-04-19T04:40:53.330Z,28.96
2023-04-19T04:41:53.382Z,28.96
2023-04-19T04:42:53.426Z,29.02
2023-04-19T04:44:08.246Z,28.96
2023-04-19T04:44:54.407Z,28.96
2023-04-19T04:45:53.448Z,28.95
2023-04-19T04:46:53.434Z,28.95
2023-04-19T04:47:53.502Z,28.99
2023-04-19T04:48:53.404Z,28.95
2023-04-19T04:49:53.394Z,28.93
2023-04-19T04:50:53.365Z,28.95
2023-04-19T04:51:53.418Z,28.93
2023-04-19T04:52:53.359Z,28.96
2023-04-19T04:53:53.391Z,28.93
2023-04-19T04:54:53.379Z,28.99
2023-04-19T04:55:53.370Z,28.95
2023-04-19T04:56:53.396Z,28.93
2023-04-19T04:57:53.354Z,28.96
2023-04-19T04:58:53.358Z,28.96
2023-04-19T04:59:53.371Z,28.92
2023-04-19T05:00:53.432Z,28.95
2023-04-19T05:01:53.436Z,28.92
2023-04-19T05:02:53.533Z,29.00
2023-04-19T05:03:53.530Z,28.90
2023-04-19T05:04:53.514Z,28.93
2023-04-19T05:05:53.550Z,28.95
2023-04-19T05:06:53.597Z,28.95
2023-04-19T05:07:53.592Z,28.93
2023-04-19T05:08:53.638Z,28.95
2023-04-19T05:09:53.692Z,28.93
2023-04-19T05:10:53.667Z,28.96
2023-04-19T05:11:53.708Z,28.93
2023-04-19T05:12:53.731Z,28.93
2023-04-19T05:13:53.812Z,28.95
2023-04-19T05:14:53.849Z,28.96
2023-04-19T05:15:53.882Z,28.96
2023-04-19T05:16:54.044Z,28.97
2023-04-19T05:17:53.970Z,28.89
2023-04-19T05:18:53.939Z,28.93
2023-04-19T05:19:53.992Z,28.93
2023-04-19T05:20:54.023Z,28.93
2023-04-19T05:21:54.073Z,28.96
2023-04-19T05:22:54.097Z,28.95
2023-04-19T05:23:54.118Z,28.93
2023-04-19T05:24:54.118Z,28.93
2023-04-19T05:25:54.238Z,28.93
2023-04-19T05:26:54.216Z,28.90
2023-04-19T05:27:54.281Z,28.97
2023-04-19T05:28:54.294Z,28.93
2023-04-19T05:29:54.288Z,28.96
2023-04-19T05:30:54.432Z,28.93
2023-04-19T05:31:54.440Z,28.95
2023-04-19T05:32:54.409Z,28.96
2023-04-19T05:33:54.423Z,28.93
2023-04-19T05:34:54.437Z,28.93
2023-04-19T05:35:54.484Z,28.93
2023-04-19T05:36:54.541Z,29.00
2023-04-19T05:37:54.557Z,29.07
2023-04-19T05:38:54.594Z,29.04
2023-04-19T05:39:54.612Z,28.99
2023-04-19T05:40:54.634Z,28.97
2023-04-19T05:41:54.673Z,28.99
2023-04-19T05:42:54.669Z,28.96
2023-04-19T05:43:54.741Z,29.00
2023-04-19T05:44:54.756Z,28.99
2023-04-19T05:45:54.815Z,28.96
2023-04-19T05:46:54.845Z,28.96
2023-04-19T05:47:54.844Z,28.98
2023-04-19T05:48:54.856Z,28.95
2023-04-19T05:49:54.881Z,28.96
2023-04-19T05:50:54.878Z,28.97
2023-04-19T05:51:54.912Z,28.93
2023-04-19T05:52:54.931Z,28.94
2023-04-19T05:54:55.959Z,28.94
2023-04-19T05:55:54.992Z,28.87
2023-04-19T05:56:54.952Z,28.90
2023-04-19T05:57:54.945Z,29.02
2023-04-19T05:58:54.909Z,28.99
2023-04-19T05:59:54.930Z,28.96
2023-04-19T06:00:54.932Z,28.93
2023-04-19T06:01:54.935Z,28.89
2023-04-19T06:02:54.975Z,28.89
2023-04-19T06:03:55.005Z,28.88
2023-04-19T06:04:54.940Z,28.87
2023-04-19T06:05:54.912Z,28.88
2023-04-19T06:06:54.854Z,28.90
2023-04-19T06:07:59.508Z,28.88
2023-04-19T06:08:55.867Z,28.89
2023-04-19T06:09:54.849Z,28.92
2023-04-19T06:10:58.458Z,28.91
2023-04-19T06:11:55.818Z,28.90
2023-04-19T06:12:54.848Z,28.92
2023-04-19T06:13:54.810Z,28.90
2023-04-19T06:14:54.784Z,28.95
2023-04-19T06:15:54.833Z,28.92
2023-04-19T06:16:54.809Z,28.92
2023-04-19T06:17:54.831Z,28.95
2023-04-19T06:18:54.793Z,28.99
2023-04-19T06:19:54.811Z,28.99
2023-04-19T06:20:54.752Z,28.94
2023-04-19T06:21:54.777Z,29.02
2023-04-19T06:22:54.773Z,28.97
2023-04-19T06:23:54.744Z,28.99
2023-04-19T06:24:54.746Z,28.99
2023-04-19T06:25:54.765Z,28.99
2023-04-19T06:26:54.723Z,29.00
2023-04-19T06:27:54.738Z,29.00
2023-04-19T06:28:54.739Z,29.00
2023-04-19T06:29:54.721Z,28.97
2023-04-19T06:30:54.707Z,29.00
2023-04-19T06:31:54.792Z,29.00
2023-04-19T06:32:54.775Z,29.02
2023-04-19T06:33:54.707Z,29.05
2023-04-19T06:34:54.691Z,29.10
2023-04-19T06:35:54.682Z,29.05
2023-04-19T06:36:54.662Z,29.09
2023-04-19T06:37:54.677Z,29.17
2023-04-19T06:38:54.660Z,29.06
2023-04-19T06:39:54.754Z,29.29
2023-04-19T06:40:54.706Z,29.23
2023-04-19T06:41:54.733Z,29.22
2023-04-19T06:42:54.747Z,29.64
2023-04-19T06:43:54.739Z,29.56
2023-04-19T06:44:54.793Z,29.83
2023-04-19T06:45:54.852Z,29.81
2023-04-19T06:46:54.799Z,29.58
2023-04-19T06:47:54.849Z,30.32
2023-04-19T06:48:54.844Z,29.87
2023-04-19T06:49:54.876Z,29.70
2023-04-19T06:50:54.905Z,29.83
2023-04-19T06:51:54.955Z,29.83
2023-04-19T06:52:54.988Z,30.10
2023-04-19T06:53:55.032Z,30.03
2023-04-19T06:54:55.083Z,30.38
2023-04-19T06:55:55.102Z,30.49
2023-04-19T06:56:55.222Z,30.69
2023-04-19T06:57:55.266Z,30.35
2023-04-19T06:58:55.265Z,30.57
2023-04-19T06:59:55.319Z,30.15
2023-04-19T07:00:55.380Z,30.12
2023-04-19T07:01:55.572Z,30.22
2023-04-19T07:02:55.505Z,30.17
2023-04-19T07:03:57.351Z,30.13
2023-04-19T07:04:55.444Z,30.12
2023-04-19T07:05:55.460Z,30.24
2023-04-19T07:06:55.460Z,31.84
2023-04-19T07:07:55.465Z,30.52
2023-04-19T07:08:55.476Z,31.05
2023-04-19T07:09:55.487Z,30.44
2023-04-19T07:10:55.466Z,30.34
2023-04-19T07:11:55.469Z,30.23
2023-04-19T07:12:55.484Z,30.29
2023-04-19T07:13:55.470Z,30.27
2023-04-19T07:14:55.501Z,30.33
2023-04-19T07:15:55.486Z,30.25
2023-04-19T07:16:55.464Z,30.27
2023-04-19T07:17:55.484Z,30.30
2023-04-19T07:18:55.478Z,30.39
2023-04-19T07:19:55.884Z,30.60
2023-04-19T07:20:55.500Z,32.94
2023-04-19T07:21:55.487Z,31.46
2023-04-19T07:22:55.501Z,31.17
2023-04-19T07:23:55.522Z,31.09
2023-04-19T07:24:55.900Z,31.03
2023-04-19T07:25:55.522Z,31.05
2023-04-19T07:26:55.545Z,30.94
2023-04-19T07:27:55.652Z,30.83
2023-04-19T07:28:55.554Z,30.81
2023-04-19T07:29:55.919Z,30.77
2023-04-19T07:30:55.551Z,30.68
2023-04-19T07:31:55.606Z,30.67
2023-04-19T07:32:55.614Z,31.67
2023-04-19T07:33:55.564Z,31.17
2023-04-19T07:34:55.544Z,31.08
2023-04-19T07:35:55.926Z,31.02
2023-04-19T07:36:55.562Z,31.04
2023-04-19T07:37:55.538Z,30.98
2023-04-19T07:38:55.554Z,30.88
2023-04-19T07:39:55.540Z,31.56
2023-04-19T07:40:55.898Z,31.01
2023-04-19T07:41:55.562Z,31.12
2023-04-19T07:42:55.591Z,31.07
2023-04-19T07:43:55.545Z,31.05
2023-04-19T07:44:55.571Z,30.99
2023-04-19T07:45:56.057Z,30.97
2023-04-19T07:46:55.603Z,31.27
2023-04-19T07:47:55.570Z,31.49
2023-04-19T07:48:55.564Z,31.43
2023-04-19T07:49:55.596Z,32.66
2023-04-19T07:50:55.928Z,31.86
2023-04-19T07:51:55.642Z,31.56
2023-04-19T07:52:55.672Z,31.81
2023-04-19T07:53:55.712Z,31.61
2023-04-19T07:54:55.734Z,32.97
2023-04-19T07:55:55.753Z,32.62
2023-04-19T07:56:55.762Z,31.78
2023-04-19T07:57:56.428Z,31.73
2023-04-19T07:59:06.858Z,31.60
2023-04-19T07:59:56.787Z,31.67
2023-04-19T08:00:55.793Z,32.30
2023-04-19T08:01:55.878Z,32.02
2023-04-19T08:02:55.942Z,31.60
2023-04-19T08:03:55.898Z,31.56
2023-04-19T08:04:55.908Z,31.43
2023-04-19T08:05:55.730Z,31.46
2023-04-19T08:06:55.709Z,31.57
2023-04-19T08:07:55.762Z,31.43
2023-04-19T08:08:55.694Z,31.43
2023-04-19T08:09:55.787Z,31.40
2023-04-19T08:10:55.746Z,31.39
2023-04-19T08:11:55.730Z,31.43
2023-04-19T08:13:04.432Z,31.32
2023-04-19T08:14:08.801Z,31.30
2023-04-19T08:15:02.633Z,31.34
2023-04-19T08:17:22.313Z,31.48
2023-04-19T08:17:56.945Z,31.37
2023-04-19T08:18:55.989Z,31.74
2023-04-19T08:19:56.100Z,31.61
2023-04-19T08:20:56.064Z,31.35
2023-04-19T08:21:56.084Z,31.39
2023-04-19T08:22:56.354Z,31.34
2023-04-19T08:23:56.149Z,31.38
2023-04-19T08:24:56.100Z,31.38
2023-04-19T08:25:56.121Z,31.52
2023-04-19T08:26:57.077Z,31.39
2023-04-19T08:27:56.298Z,31.52
2023-04-19T08:28:56.338Z,31.47
2023-04-19T08:29:56.338Z,31.42
2023-04-19T08:30:56.318Z,31.38
2023-04-19T08:31:56.474Z,31.45
2023-04-19T08:32:57.251Z,31.45
2023-04-19T08:33:56.335Z,31.37
2023-04-19T08:34:56.323Z,31.45
2023-04-19T08:35:56.341Z,31.39
2023-04-19T08:37:03.935Z,31.52
2023-04-19T08:37:57.297Z,31.42
2023-04-19T08:39:05.430Z,31.40
2023-04-19T08:39:57.311Z,31.43
2023-04-19T08:40:56.324Z,31.40
2023-04-19T08:42:07.074Z,32.32
2023-04-19T08:42:57.307Z,31.87
2023-04-19T08:43:56.296Z,31.79
2023-04-19T08:45:56.308Z,31.95
2023-04-19T08:46:56.281Z,31.98
2023-04-19T08:48:01.358Z,31.93
2023-04-19T08:48:57.292Z,32.04
2023-04-19T08:50:08.716Z,32.48
2023-04-19T08:51:05.043Z,31.90
2023-04-19T08:51:57.302Z,31.60
2023-04-19T08:53:02.808Z,31.89
2023-04-19T08:53:57.221Z,31.81
2023-04-19T08:54:56.227Z,31.49
2023-04-19T08:56:10.664Z,31.76
2023-04-19T08:56:57.202Z,30.73
2023-04-19T08:57:56.191Z,30.94
2023-04-19T08:59:11.767Z,30.44
2023-04-19T08:59:57.217Z,31.00
2023-04-19T09:00:56.443Z,31.33
2023-04-19T09:01:56.250Z,31.39
2023-04-19T09:02:56.280Z,31.35
2023-04-19T09:04:04.732Z,31.28
2023-04-19T09:04:57.296Z,31.29
2023-04-19T09:05:56.446Z,31.27
2023-04-19T09:06:56.124Z,31.79
2023-04-19T09:07:56.128Z,31.37
2023-04-19T09:08:56.128Z,31.28
2023-04-19T09:10:02.993Z,31.26
2023-04-19T09:10:57.116Z,31.31
2023-04-19T09:11:56.087Z,31.43
2023-04-19T09:12:56.087Z,31.39
2023-04-19T09:13:56.082Z,31.35
2023-04-19T09:15:01.700Z,31.31
2023-04-19T09:15:57.122Z,32.07
2023-04-19T09:16:56.062Z,31.46
2023-04-19T09:17:56.104Z,31.50
2023-04-19T09:19:02.394Z,31.42
2023-04-19T09:19:57.061Z,31.40
2023-04-19T09:20:56.024Z,32.48
2023-04-19T09:21:56.506Z,31.73
2023-04-19T09:22:56.055Z,31.57
2023-04-19T09:23:56.053Z,32.09
2023-04-19T09:25:22.713Z,32.02
2023-04-19T09:26:56.031Z,31.72
2023-04-19T09:27:56.054Z,31.96
2023-04-19T09:28:56.036Z,32.72
2023-04-19T09:29:55.985Z,32.80
2023-04-19T09:31:05.779Z,32.03
2023-04-19T09:31:57.019Z,32.00
2023-04-19T09:32:56.126Z,32.05
2023-04-19T09:33:55.979Z,31.98
2023-04-19T09:34:56.004Z,31.98
2023-04-19T09:35:55.977Z,32.03
2023-04-19T09:37:08.555Z,31.99
2023-04-19T09:38:05.840Z,32.12
2023-04-19T09:38:56.947Z,32.03
2023-04-19T09:39:55.932Z,32.10
2023-04-19T09:40:55.973Z,32.08
2023-04-19T09:41:55.920Z,32.15
2023-04-19T09:44:11.761Z,32.37
2023-04-19T09:45:27.726Z,32.25
2023-04-19T09:45:56.885Z,32.71
2023-04-19T09:46:55.946Z,32.47
2023-04-19T09:47:55.949Z,33.40
2023-04-19T09:48:55.877Z,33.24
2023-04-19T09:49:55.880Z,32.74
2023-04-19T09:51:00.679Z,33.07
2023-04-19T09:51:56.897Z,32.67
2023-04-19T09:52:55.856Z,32.61
2023-04-19T09:53:55.845Z,32.64
2023-04-19T09:54:55.864Z,32.65
2023-04-19T09:56:01.198Z,32.67
2023-04-19T09:56:58.379Z,32.61
2023-04-19T09:57:55.827Z,32.51
2023-04-19T09:59:01.655Z,32.53
2023-04-19T09:59:56.815Z,32.55
2023-04-19T10:01:55.898Z,32.58
2023-04-19T10:02:56.066Z,32.53
2023-04-19T10:03:56.052Z,32.69
2023-04-19T10:05:15.755Z,32.58
2023-04-19T10:05:57.331Z,32.53
2023-04-19T10:07:24.518Z,32.48
2023-04-19T10:07:59.723Z,32.43
2023-04-19T10:08:55.817Z,32.39
2023-04-19T10:09:59.940Z,32.43
2023-04-19T10:10:56.782Z,32.31
2023-04-19T10:12:03.185Z,32.26
2023-04-19T10:13:11.548Z,32.27
2023-04-19T10:13:56.737Z,32.30
2023-04-19T10:14:55.756Z,32.21
2023-04-19T10:16:01.755Z,32.11
2023-04-19T10:16:57.028Z,32.10
2023-04-19T10:17:55.778Z,32.05
2023-04-19T10:18:55.704Z,32.04
2023-04-19T10:19:55.708Z,31.97
2023-04-19T10:20:55.727Z,31.92
2023-04-19T10:21:55.962Z,31.99
2023-04-19T10:22:57.478Z,31.87
2023-04-19T10:23:55.689Z,31.92
2023-04-19T10:24:55.694Z,31.85
2023-04-19T10:25:55.702Z,31.81
2023-04-19T10:26:55.990Z,31.79
2023-04-19T10:27:55.675Z,31.75
2023-04-19T10:28:55.624Z,31.75
2023-04-19T10:29:55.634Z,31.62
2023-04-19T10:30:55.667Z,31.59
2023-04-19T10:31:56.070Z,31.58
2023-04-19T10:32:55.673Z,31.58
2023-04-19T10:33:55.604Z,31.55
2023-04-19T10:34:55.600Z,31.49
2023-04-19T10:35:55.631Z,31.41
2023-04-19T10:36:55.959Z,31.34
2023-04-19T10:37:55.588Z,31.41
2023-04-19T10:38:55.668Z,31.34
2023-04-19T10:39:55.614Z,31.32
2023-04-19T10:40:55.629Z,31.24
2023-04-19T10:41:55.999Z,31.23
2023-04-19T10:42:55.572Z,31.20
2023-04-19T10:43:55.522Z,31.20
2023-04-19T10:44:55.533Z,31.25
2023-04-19T10:45:55.640Z,31.22
2023-04-19T10:46:55.528Z,31.27
2023-04-19T10:47:55.560Z,31.27
2023-04-19T10:48:55.514Z,31.16
2023-04-19T10:49:55.505Z,31.27
2023-04-19T10:50:55.483Z,31.16
2023-04-19T10:51:55.990Z,31.22
2023-04-19T10:52:55.506Z,31.23
2023-04-19T10:53:55.686Z,31.22
2023-04-19T10:54:55.493Z,31.21
2023-04-19T10:55:55.494Z,31.22
2023-04-19T10:56:55.505Z,31.19
2023-04-19T10:57:55.519Z,31.16
2023-04-19T10:58:55.504Z,31.15
2023-04-19T10:59:55.519Z,31.13
2023-04-19T11:00:55.564Z,31.18
2023-04-19T11:01:56.046Z,31.16
2023-04-19T11:02:55.679Z,31.18
2023-04-19T11:03:55.905Z,31.20
2023-04-19T11:04:55.620Z,31.15
2023-04-19T11:05:55.589Z,31.19
2023-04-19T11:06:55.624Z,31.15
2023-04-19T11:07:55.612Z,31.14
2023-04-19T11:08:55.617Z,31.11
2023-04-19T11:09:55.654Z,31.11
2023-04-19T11:10:55.648Z,31.05
2023-04-19T11:11:55.642Z,31.05
2023-04-19T11:12:55.669Z,31.00
2023-04-19T11:13:55.681Z,31.04
2023-04-19T11:14:55.738Z,31.01
2023-04-19T11:15:55.739Z,30.97
2023-04-19T11:16:56.026Z,31.06
2023-04-19T11:18:11.366Z,31.00
2023-04-19T11:18:56.687Z,30.95
2023-04-19T11:19:55.680Z,30.97
2023-04-19T11:20:55.678Z,30.92
2023-04-19T11:21:55.712Z,30.96
2023-04-19T11:22:55.671Z,30.99
2023-04-19T11:23:55.676Z,30.91
2023-04-19T11:24:55.665Z,30.85
2023-04-19T11:25:55.653Z,30.92
2023-04-19T11:26:55.761Z,30.88
2023-04-19T11:27:55.668Z,30.82
2023-04-19T11:28:55.599Z,30.82
2023-04-19T11:29:55.617Z,30.83
2023-04-19T11:30:55.677Z,30.82
2023-04-19T11:31:55.637Z,30.82
2023-04-19T11:32:55.649Z,30.82
2023-04-19T11:33:55.595Z,30.83
2023-04-19T11:34:55.584Z,30.78
2023-04-19T11:35:55.561Z,30.80
2023-04-19T11:36:55.608Z,30.83
2023-04-19T11:37:55.577Z,30.75
2023-04-19T11:38:55.577Z,30.74
2023-04-19T11:39:55.606Z,30.74
2023-04-19T11:40:55.554Z,30.79
2023-04-19T11:41:55.543Z,30.78
2023-04-19T11:42:55.550Z,30.74
2023-04-19T11:43:55.828Z,30.71
2023-04-19T11:44:55.551Z,30.71
2023-04-19T11:45:55.526Z,30.68
2023-04-19T11:46:55.537Z,30.71
2023-04-19T11:47:55.501Z,30.70
2023-04-19T11:48:55.559Z,30.67
2023-04-19T11:49:55.511Z,30.57
2023-04-19T11:50:55.527Z,30.62
2023-04-19T11:51:55.498Z,30.65
2023-04-19T11:52:55.500Z,30.64
2023-04-19T11:53:55.498Z,30.56
2023-04-19T11:54:55.503Z,30.60
2023-04-19T11:55:55.478Z,30.53
2023-04-19T11:56:55.473Z,30.57
2023-04-19T11:57:55.453Z,30.56
2023-04-19T11:58:55.477Z,30.60
2023-04-19T11:59:55.494Z,30.57
2023-04-19T12:00:55.433Z,30.50
2023-04-19T12:01:55.559Z,30.54
2023-04-19T12:02:55.700Z,30.51
2023-04-19T12:03:55.626Z,30.50
2023-04-19T12:04:55.584Z,30.50
2023-04-19T12:05:55.461Z,30.52
2023-04-19T12:06:55.418Z,30.47
2023-04-19T12:07:55.382Z,30.46
2023-04-19T12:08:55.392Z,30.46
2023-04-19T12:09:55.433Z,30.50
2023-04-19T12:10:55.365Z,30.48
2023-04-19T12:11:55.393Z,30.47
2023-04-19T12:12:55.379Z,30.50
2023-04-19T12:13:55.404Z,30.47
2023-04-19T12:14:55.384Z,30.44
2023-04-19T12:15:55.410Z,30.43
2023-04-19T12:16:55.473Z,30.44
2023-04-19T12:17:57.544Z,30.46
2023-04-19T12:18:55.396Z,30.44
2023-04-19T12:19:55.399Z,30.43
2023-04-19T12:20:55.393Z,30.44
2023-04-19T12:21:55.397Z,30.44
2023-04-19T12:22:55.381Z,30.46
2023-04-19T12:23:55.415Z,30.46
2023-04-19T12:24:55.419Z,30.47
2023-04-19T12:25:55.420Z,30.39
2023-04-19T12:26:56.370Z,30.40
2023-04-19T12:27:56.455Z,30.35
2023-04-19T12:28:55.438Z,30.34
2023-04-19T12:29:55.423Z,30.37
2023-04-19T12:30:55.413Z,30.40
2023-04-19T12:31:55.411Z,30.33
2023-04-19T12:32:55.536Z,30.30
2023-04-19T12:33:55.405Z,30.34
2023-04-19T12:34:55.394Z,30.27
2023-04-19T12:35:55.383Z,30.29
2023-04-19T12:36:55.417Z,30.34
2023-04-19T12:37:55.368Z,30.30
2023-04-19T12:38:55.351Z,30.26
2023-04-19T12:39:56.346Z,30.29
2023-04-19T12:40:55.361Z,30.27
2023-04-19T12:41:55.335Z,30.26
2023-04-19T12:42:55.360Z,30.20
2023-04-19T12:43:55.327Z,30.20
2023-04-19T12:44:55.333Z,30.13
2023-04-19T12:45:55.371Z,30.22
2023-04-19T12:46:55.315Z,30.19
2023-04-19T12:47:55.329Z,30.18
2023-04-19T12:48:55.283Z,30.18
2023-04-19T12:49:55.279Z,30.13
2023-04-19T12:50:55.275Z,30.13
2023-04-19T12:51:57.244Z,30.10
2023-04-19T12:52:55.319Z,30.08
2023-04-19T12:53:55.286Z,30.09
2023-04-19T12:54:55.264Z,30.05
2023-04-19T12:55:55.254Z,30.12
2023-04-19T12:56:55.267Z,30.04
2023-04-19T12:57:55.229Z,30.06
2023-04-19T12:58:55.242Z,30.06